createdAt,value
2022-12-17T00:01:18.852Z,14.10
2022-12-17T00:04:04.198Z,12.20
2022-12-17T00:06:49.848Z,12.93
2022-12-17T00:09:35.467Z,11.23
2022-12-17T00:12:20.237Z,11.80
2022-12-17T00:15:05.034Z,14.55
2022-12-17T00:17:49.780Z,11.73
2022-12-17T00:20:34.501Z,12.48
2022-12-17T00:23:21.116Z,12.48
2022-12-17T00:26:11.267Z,11.90
2022-12-17T00:28:57.055Z,12.10
2022-12-17T00:31:45.177Z,11.38
2022-12-17T00:34:30.508Z,13.80
2022-12-17T00:40:00.318Z,12.40
2022-12-17T00:42:45.404Z,13.98
2022-12-17T00:45:31.402Z,14.18
2022-12-17T00:48:16.635Z,13.65
2022-12-17T00:53:45.982Z,12.70
2022-12-17T00:56:30.796Z,13.20
2022-12-17T00:59:16.086Z,11.32
2022-12-17T01:04:46.069Z,11.00
2022-12-17T01:07:31.187Z,11.20
2022-12-17T01:10:15.962Z,12.23
2022-12-17T01:13:00.749Z,12.20
2022-12-17T01:15:45.526Z,13.70
2022-12-17T01:18:36.772Z,14.23
2022-12-17T01:21:21.923Z,10.32
2022-12-17T01:24:06.686Z,13.77
2022-12-17T01:26:51.819Z,12.65
2022-12-17T01:29:36.674Z,12.43
2022-12-17T01:32:21.996Z,13.27
2022-12-17T01:37:51.729Z,11.75
2022-12-17T01:40:36.481Z,10.30
2022-12-17T01:43:21.808Z,12.18
2022-12-17T01:46:08.166Z,13.20
2022-12-17T01:49:01.042Z,13.27
2022-12-17T01:51:48.285Z,13.07
2022-12-17T01:54:34.144Z,13.05
2022-12-17T01:57:20.451Z,11.55
2022-12-17T02:00:20.057Z,12.90
2022-12-17T02:03:04.772Z,11.25
2022-12-17T02:05:57.513Z,12.65
2022-12-17T02:09:16.270Z,12.63
2022-12-17T02:12:07.922Z,11.65
2022-12-17T02:15:19.659Z,9.70
2022-12-17T02:18:15.045Z,10.35
2022-12-17T02:21:06.877Z,11.30
2022-12-17T02:24:14.252Z,10.30
2022-12-17T02:27:05.571Z,10.82
2022-12-17T02:30:04.494Z,10.85
2022-12-17T02:32:52.674Z,9.43
2022-12-17T02:35:43.609Z,9.57
2022-12-17T02:38:41.381Z,12.05
2022-12-17T02:41:32.845Z,10.32
2022-12-17T02:44:18.983Z,12.13
2022-12-17T02:47:05.179Z,9.77
2022-12-17T02:49:50.815Z,11.25
2022-12-17T02:52:39.792Z,10.77
2022-12-17T02:55:25.562Z,11.73
2022-12-17T02:58:10.597Z,9.60
2022-12-17T03:00:55.995Z,11.70
2022-12-17T03:03:43.875Z,10.52
2022-12-17T03:06:32.494Z,9.25
2022-12-17T03:09:17.448Z,10.57
2022-12-17T03:12:02.201Z,11.98
2022-12-17T03:14:47.111Z,10.38
2022-12-17T03:17:31.750Z,11.98
2022-12-17T03:20:16.833Z,11.80
2022-12-17T03:23:01.562Z,12.55
2022-12-17T03:25:46.390Z,11.63
2022-12-17T03:28:31.053Z,13.88
2022-12-17T03:31:17.156Z,12.57
2022-12-17T03:34:02.013Z,11.07
2022-12-17T03:36:47.294Z,12.75
2022-12-17T03:42:17.474Z,13.07
2022-12-17T03:47:50.570Z,12.63
2022-12-17T03:50:35.349Z,13.25
2022-12-17T03:53:22.885Z,14.52
2022-12-17T03:56:07.683Z,13.00
2022-12-17T03:58:52.457Z,11.82
2022-12-17T04:01:37.244Z,12.07
2022-12-17T04:04:23.278Z,12.18
2022-12-17T04:07:08.691Z,12.75
2022-12-17T04:09:53.358Z,15.32
2022-12-17T04:12:37.993Z,13.40
2022-12-17T04:15:24.008Z,12.25
2022-12-17T04:18:08.814Z,12.73
2022-12-17T04:20:53.564Z,11.48
2022-12-17T04:23:38.841Z,12.95
2022-12-17T04:26:23.843Z,11.05
2022-12-17T04:29:08.612Z,13.73
2022-12-17T04:31:54.476Z,13.57
2022-12-17T04:34:39.112Z,11.68
2022-12-17T04:37:23.830Z,12.32
2022-12-17T04:40:08.812Z,14.48
2022-12-17T04:42:53.598Z,13.48
2022-12-17T04:45:38.447Z,11.90
2022-12-17T04:48:26.189Z,14.43
2022-12-17T04:51:11.259Z,13.82
2022-12-17T04:53:56.265Z,14.93
2022-12-17T04:56:41.750Z,12.52
2022-12-17T04:59:26.946Z,12.82
2022-12-17T05:04:56.646Z,11.88
2022-12-17T05:07:41.555Z,12.25
2022-12-17T05:10:27.103Z,12.95
2022-12-17T05:13:19.281Z,12.52
2022-12-17T05:16:05.079Z,11.70
2022-12-17T05:18:52.194Z,12.20
2022-12-17T05:21:37.299Z,15.00
2022-12-17T05:27:07.060Z,9.95
2022-12-17T05:29:51.868Z,12.57
2022-12-17T05:32:36.705Z,13.23
2022-12-17T05:35:21.755Z,10.38
2022-12-17T05:38:06.434Z,12.45
2022-12-17T05:40:52.208Z,12.13
2022-12-17T05:43:37.347Z,10.50
2022-12-17T05:46:24.434Z,10.25
2022-12-17T05:49:09.072Z,9.55
2022-12-17T05:51:53.942Z,9.77
2022-12-17T05:54:39.064Z,9.50
2022-12-17T05:57:23.721Z,8.00
2022-12-17T06:00:08.597Z,7.85
2022-12-17T06:02:53.420Z,9.02
2022-12-17T06:05:38.485Z,8.95
2022-12-17T06:08:27.356Z,10.13
2022-12-17T06:11:13.022Z,10.05
2022-12-17T06:13:57.828Z,7.80
2022-12-17T06:16:53.106Z,9.32
2022-12-17T06:19:37.878Z,7.97
2022-12-17T06:22:22.727Z,8.82
2022-12-17T06:25:11.992Z,8.13
2022-12-17T06:27:56.770Z,7.82
2022-12-17T06:30:41.555Z,8.25
2022-12-17T06:33:29.506Z,7.60
2022-12-17T06:36:22.222Z,8.45
2022-12-17T06:39:07.810Z,8.30
2022-12-17T06:41:52.829Z,6.68
2022-12-17T06:44:45.276Z,7.72
2022-12-17T06:47:30.094Z,8.57
2022-12-17T06:50:15.021Z,7.25
2022-12-17T06:52:59.753Z,8.35
2022-12-17T06:55:44.601Z,8.18
2022-12-17T06:58:29.525Z,8.90
2022-12-17T07:01:14.631Z,8.70
2022-12-17T07:06:44.540Z,7.03
2022-12-17T07:09:29.328Z,7.72
2022-12-17T07:12:14.420Z,9.40
2022-12-17T07:17:44.006Z,8.60
2022-12-17T07:20:29.750Z,9.68
2022-12-17T07:23:15.309Z,9.18
2022-12-17T07:26:01.223Z,8.32
2022-12-17T07:28:45.991Z,8.90
2022-12-17T07:31:30.776Z,10.65
2022-12-17T07:34:15.598Z,9.38
2022-12-17T07:37:00.379Z,8.93
2022-12-17T07:39:45.592Z,10.52
2022-12-17T07:45:35.296Z,7.95
2022-12-17T07:51:09.089Z,7.75
2022-12-17T07:53:54.350Z,9.50
2022-12-17T07:56:39.948Z,9.52
2022-12-17T07:59:24.893Z,10.48
2022-12-17T08:02:09.759Z,9.93
2022-12-17T08:05:06.017Z,9.70
2022-12-17T08:10:36.257Z,7.18
2022-12-17T08:13:23.011Z,8.88
2022-12-17T08:16:10.794Z,8.82
2022-12-17T08:18:55.700Z,9.38
2022-12-17T08:21:40.445Z,9.95
2022-12-17T08:24:25.526Z,9.05
2022-12-17T08:27:10.740Z,9.55
2022-12-17T08:32:41.170Z,9.55
2022-12-17T08:35:26.749Z,9.80
2022-12-17T08:38:11.590Z,9.13
2022-12-17T08:40:56.501Z,8.35
2022-12-17T08:43:41.317Z,10.00
2022-12-17T08:46:26.394Z,9.52
2022-12-17T08:49:11.508Z,9.32
2022-12-17T08:51:56.093Z,9.30
2022-12-17T08:54:40.951Z,11.55
2022-12-17T08:57:32.473Z,10.65
2022-12-17T09:00:18.159Z,9.82
2022-12-17T09:03:03.565Z,8.85
2022-12-17T09:05:52.976Z,10.05
2022-12-17T09:08:54.454Z,8.88
2022-12-17T09:11:39.412Z,9.10
2022-12-17T09:14:24.468Z,9.85
2022-12-17T09:17:09.283Z,11.65
2022-12-17T09:20:04.653Z,13.18
2022-12-17T09:22:50.141Z,10.98
2022-12-17T09:25:35.626Z,11.27
2022-12-17T09:28:27.310Z,10.25
2022-12-17T09:31:17.767Z,11.77
2022-12-17T09:34:03.476Z,10.38
2022-12-17T09:36:51.320Z,13.77
2022-12-17T09:39:36.998Z,9.90
2022-12-17T09:42:49.676Z,11.13
2022-12-17T09:45:38.889Z,10.57
2022-12-17T09:48:32.092Z,10.02
2022-12-17T09:51:17.180Z,11.18
2022-12-17T09:54:07.950Z,11.65
2022-12-17T09:56:55.081Z,10.35
2022-12-17T09:59:47.913Z,10.80
2022-12-17T10:02:51.092Z,12.25
2022-12-17T10:05:42.969Z,9.88
2022-12-17T10:08:32.210Z,11.93
2022-12-17T10:11:34.214Z,11.18
2022-12-17T10:14:31.239Z,11.63
2022-12-17T10:17:16.101Z,10.98
2022-12-17T10:20:01.491Z,11.15
2022-12-17T10:22:46.683Z,11.80
2022-12-17T10:28:29.285Z,11.85
2022-12-17T10:31:14.504Z,10.50
2022-12-17T10:34:00.558Z,10.82
2022-12-17T10:36:47.055Z,10.25
2022-12-17T10:39:50.705Z,12.02
2022-12-17T10:42:45.770Z,12.52
2022-12-17T10:45:53.158Z,11.57
2022-12-17T10:48:43.488Z,11.98
2022-12-17T10:51:50.134Z,11.07
2022-12-17T10:54:49.031Z,11.13
2022-12-17T10:57:56.763Z,10.07
2022-12-17T11:00:49.800Z,11.32
2022-12-17T11:03:49.998Z,11.43
2022-12-17T11:06:44.691Z,10.13
2022-12-17T11:09:53.509Z,11.40
2022-12-17T11:12:44.489Z,9.43
2022-12-17T11:15:38.730Z,11.15
2022-12-17T11:18:29.443Z,12.70
2022-12-17T11:21:25.564Z,12.32
2022-12-17T11:24:15.431Z,10.02
2022-12-17T11:27:08.721Z,14.02
2022-12-17T11:30:00.988Z,11.98
2022-12-17T11:33:00.027Z,12.13
2022-12-17T11:35:58.445Z,11.20
2022-12-17T11:38:57.164Z,12.45
2022-12-17T11:42:20.022Z,10.90
2022-12-17T11:45:17.965Z,11.60
2022-12-17T11:48:16.627Z,11.55
2022-12-17T11:51:34.213Z,10.32
2022-12-17T11:55:07.202Z,10.60
2022-12-17T11:58:14.098Z,12.75
2022-12-17T12:01:13.559Z,12.40
2022-12-17T12:04:07.431Z,13.05
2022-12-17T12:07:02.083Z,13.43
2022-12-17T12:10:06.207Z,13.90
2022-12-17T12:13:12.844Z,13.82
2022-12-17T12:16:09.824Z,10.70
2022-12-17T12:19:11.662Z,12.57
2022-12-17T12:22:03.951Z,11.43
2022-12-17T12:25:06.921Z,12.07
2022-12-17T12:28:29.754Z,12.23
2022-12-17T12:31:27.167Z,12.20
2022-12-17T12:34:21.367Z,10.73
2022-12-17T12:37:08.907Z,11.93
2022-12-17T12:40:10.922Z,11.93
2022-12-17T12:42:59.965Z,11.65
2022-12-17T12:46:06.291Z,12.55
2022-12-17T12:49:06.450Z,11.30
2022-12-17T12:51:56.294Z,10.73
2022-12-17T12:55:08.274Z,11.10
2022-12-17T12:57:56.594Z,11.25
2022-12-17T13:00:42.965Z,11.13
2022-12-17T13:03:52.900Z,12.75
2022-12-17T13:06:41.128Z,11.52
2022-12-17T13:09:20.694Z,11.88
2022-12-17T13:12:02.481Z,11.02
2022-12-17T13:14:43.769Z,11.27
2022-12-17T13:17:16.375Z,12.43
2022-12-17T13:19:57.981Z,11.55
2022-12-17T13:22:24.774Z,11.63
2022-12-17T13:24:54.603Z,11.95
2022-12-17T13:27:33.113Z,12.25
2022-12-17T13:30:17.701Z,13.18
2022-12-17T13:32:49.259Z,11.63
2022-12-17T13:35:40.767Z,11.40
2022-12-17T13:38:21.033Z,12.15
2022-12-17T13:41:22.441Z,11.93
2022-12-17T13:43:58.263Z,10.77
2022-12-17T13:46:56.739Z,11.90
2022-12-17T13:49:25.874Z,11.82
2022-12-17T13:52:11.787Z,12.32
2022-12-17T13:54:38.326Z,13.50
2022-12-17T13:57:15.479Z,11.88
2022-12-17T13:59:49.487Z,15.55
2022-12-17T14:02:33.918Z,13.37
2022-12-17T14:05:07.398Z,11.30
2022-12-17T14:08:45.003Z,11.40
2022-12-17T14:11:30.670Z,10.50
2022-12-17T14:13:57.631Z,11.68
2022-12-17T14:16:24.105Z,15.38
2022-12-17T14:18:57.206Z,13.48
2022-12-17T14:21:26.377Z,14.15
2022-12-17T14:23:53.364Z,10.73
2022-12-17T14:26:21.431Z,13.05
2022-12-17T14:28:51.003Z,13.35
2022-12-17T14:31:27.998Z,11.20
2022-12-17T14:34:07.222Z,14.07
2022-12-17T14:36:40.229Z,13.93
2022-12-17T14:39:20.991Z,12.77
2022-12-17T14:42:06.085Z,12.77
2022-12-17T14:44:33.124Z,12.52
2022-12-17T14:47:23.467Z,11.32
2022-12-17T14:50:00.544Z,9.40
2022-12-17T14:52:40.721Z,11.85
2022-12-17T14:55:31.368Z,11.90
2022-12-17T14:58:12.747Z,10.95
2022-12-17T15:00:46.006Z,13.30
2022-12-17T15:03:27.860Z,12.13
2022-12-17T15:06:06.705Z,13.27
2022-12-17T15:08:46.086Z,11.88
2022-12-17T15:11:14.921Z,11.63
2022-12-17T15:13:42.287Z,11.88
2022-12-17T15:16:08.717Z,13.30
2022-12-17T15:18:35.808Z,12.02
2022-12-17T15:21:03.546Z,14.35
2022-12-17T15:23:30.698Z,17.38
2022-12-17T15:25:57.187Z,12.90
2022-12-17T15:28:26.785Z,14.82
2022-12-17T15:30:53.470Z,12.68
2022-12-17T15:33:19.873Z,12.55
2022-12-17T15:35:46.250Z,13.52
2022-12-17T15:38:12.859Z,14.85
2022-12-17T15:40:39.733Z,13.40
2022-12-17T15:43:12.129Z,16.67
2022-12-17T15:45:38.623Z,12.27
2022-12-17T15:48:05.379Z,12.35
2022-12-17T15:50:32.074Z,11.82
2022-12-17T15:52:58.437Z,12.55
2022-12-17T15:55:24.775Z,15.40
2022-12-17T15:57:51.115Z,14.90
2022-12-17T16:00:18.270Z,12.52
2022-12-17T16:02:44.822Z,13.50
2022-12-17T16:05:12.355Z,13.35
2022-12-17T16:07:38.754Z,17.27
2022-12-17T16:10:06.717Z,32.08
2022-12-17T16:12:33.595Z,25.83
2022-12-17T16:14:59.963Z,28.88
2022-12-17T16:17:26.565Z,20.63
2022-12-17T16:19:52.934Z,16.00
2022-12-17T16:22:19.321Z,16.30
2022-12-17T16:24:45.952Z,14.85
2022-12-17T16:27:13.146Z,13.60
2022-12-17T16:29:39.593Z,12.85
2022-12-17T16:32:06.430Z,13.02
2022-12-17T16:34:32.883Z,17.50
2022-12-17T16:37:01.251Z,17.92
2022-12-17T16:39:27.924Z,20.95
2022-12-17T16:41:54.283Z,16.08
2022-12-17T16:44:20.746Z,15.45
2022-12-17T16:46:47.168Z,13.85
2022-12-17T16:49:19.510Z,11.57
2022-12-17T16:51:48.696Z,12.25
2022-12-17T16:54:21.036Z,10.70
2022-12-17T16:56:48.112Z,13.00
2022-12-17T16:59:16.016Z,11.32
2022-12-17T17:01:44.907Z,11.30
2022-12-17T17:04:12.988Z,11.20
2022-12-17T17:06:41.161Z,12.75
2022-12-17T17:09:08.320Z,10.80
2022-12-17T17:11:34.923Z,9.50
2022-12-17T17:14:01.369Z,11.48
2022-12-17T17:16:27.961Z,20.58
2022-12-17T17:18:54.639Z,14.85
2022-12-17T17:21:29.624Z,12.00
2022-12-17T17:24:09.920Z,12.77
2022-12-17T17:26:36.541Z,11.00
2022-12-17T17:29:03.900Z,11.00
2022-12-17T17:34:16.764Z,10.82
2022-12-17T17:36:43.780Z,11.38
2022-12-17T17:39:10.818Z,12.60
2022-12-17T17:41:37.307Z,13.68
2022-12-17T17:44:07.170Z,11.45
2022-12-17T17:46:34.365Z,10.82
2022-12-17T17:49:02.679Z,11.38
2022-12-17T17:52:07.253Z,10.43
2022-12-17T17:54:18.872Z,11.75
2022-12-17T17:56:45.229Z,12.38
2022-12-17T17:59:14.394Z,12.50
2022-12-17T18:01:43.279Z,12.02
2022-12-17T18:04:13.024Z,11.48
2022-12-17T18:06:57.421Z,11.57
2022-12-17T18:09:27.857Z,12.10
2022-12-17T18:11:54.261Z,11.60
2022-12-17T18:14:20.592Z,11.93
2022-12-17T18:16:48.023Z,10.43
2022-12-17T18:19:19.949Z,10.95
2022-12-17T18:21:47.130Z,11.52
2022-12-17T18:24:16.407Z,11.15
2022-12-17T18:26:44.397Z,11.18
2022-12-17T18:29:22.829Z,11.45
2022-12-17T18:31:52.122Z,10.50
2022-12-17T18:34:21.376Z,12.77
2022-12-17T18:36:49.657Z,10.57
2022-12-17T18:39:21.820Z,11.07
2022-12-17T18:42:07.977Z,10.05
2022-12-17T18:44:38.070Z,10.52
2022-12-17T18:47:04.711Z,11.57
2022-12-17T18:49:31.220Z,9.48
2022-12-17T18:51:58.200Z,11.15
2022-12-17T18:54:27.422Z,10.27
2022-12-17T18:57:01.620Z,12.05
2022-12-17T19:01:56.543Z,8.50
2022-12-17T19:04:23.518Z,10.57
2022-12-17T19:06:53.328Z,10.30
2022-12-17T19:09:26.188Z,9.80
2022-12-17T19:11:54.220Z,10.27
2022-12-17T19:14:22.411Z,10.27
2022-12-17T19:16:50.166Z,12.35
2022-12-17T19:19:17.277Z,14.02
2022-12-17T19:21:43.702Z,15.07
2022-12-17T19:24:13.626Z,16.08
2022-12-17T19:26:40.509Z,20.25
2022-12-17T19:29:08.443Z,16.83
2022-12-17T19:31:35.393Z,15.00
2022-12-17T19:34:04.865Z,13.50
2022-12-17T19:36:35.534Z,10.88
2022-12-17T19:39:05.195Z,12.00
2022-12-17T19:41:32.774Z,10.40
2022-12-17T19:44:01.444Z,10.70
2022-12-17T19:46:29.585Z,11.55
2022-12-17T19:48:57.299Z,10.55
2022-12-17T19:51:25.905Z,11.55
2022-12-17T19:53:52.312Z,13.55
2022-12-17T19:56:30.503Z,10.23
2022-12-17T19:59:02.707Z,10.63
2022-12-17T20:01:31.891Z,10.32
2022-12-17T20:03:58.896Z,9.27
2022-12-17T20:06:28.467Z,9.95
2022-12-17T20:08:55.279Z,9.10
2022-12-17T20:11:34.082Z,8.88
2022-12-17T20:14:03.065Z,8.93
2022-12-17T20:16:31.384Z,11.50
2022-12-17T20:19:02.218Z,8.90
2022-12-17T20:21:29.130Z,9.05
2022-12-17T20:23:55.639Z,13.63
2022-12-17T20:26:23.617Z,12.23
2022-12-17T20:28:49.977Z,8.40
2022-12-17T20:31:17.099Z,9.60
2022-12-17T20:33:43.838Z,9.00
2022-12-17T20:36:13.769Z,8.82
2022-12-17T20:38:41.199Z,8.82
2022-12-17T20:41:17.500Z,9.07
2022-12-17T20:43:44.437Z,10.70
2022-12-17T20:46:11.665Z,9.85
2022-12-17T20:48:40.099Z,9.38
2022-12-17T20:51:16.419Z,10.98
2022-12-17T20:53:44.721Z,9.00
2022-12-17T20:56:17.651Z,11.60
2022-12-17T20:58:44.820Z,9.50
2022-12-17T21:01:12.543Z,9.73
2022-12-17T21:03:40.177Z,8.85
2022-12-17T21:06:37.113Z,9.50
2022-12-17T21:09:04.117Z,8.75
2022-12-17T21:11:32.601Z,8.13
2022-12-17T21:14:01.711Z,8.00
2022-12-17T21:16:31.303Z,8.32
2022-12-17T21:19:00.095Z,8.63
2022-12-17T21:21:29.176Z,7.95
2022-12-17T21:23:56.837Z,8.93
2022-12-17T21:26:32.031Z,9.82
2022-12-17T21:29:00.045Z,9.50
2022-12-17T21:31:28.867Z,9.98
2022-12-17T21:33:58.714Z,10.15
2022-12-17T21:36:27.365Z,10.60
2022-12-17T21:38:54.036Z,9.65
2022-12-17T21:41:25.751Z,9.45
2022-12-17T21:43:54.083Z,10.80
2022-12-17T21:46:20.563Z,10.30
2022-12-17T21:48:47.254Z,10.65
2022-12-17T21:51:14.149Z,10.88
2022-12-17T21:53:43.385Z,10.98
2022-12-17T21:56:15.798Z,10.60
2022-12-17T21:58:43.911Z,10.25
2022-12-17T22:01:22.638Z,9.57
2022-12-17T22:03:54.107Z,10.77
2022-12-17T22:06:25.330Z,10.93
2022-12-17T22:08:58.860Z,10.85
2022-12-17T22:11:28.025Z,10.50
2022-12-17T22:14:15.545Z,11.15
2022-12-17T22:16:48.909Z,9.73
2022-12-17T22:19:23.463Z,11.02
2022-12-17T22:21:51.149Z,12.20
2022-12-17T22:24:24.059Z,11.75
2022-12-17T22:26:50.540Z,11.45
2022-12-17T22:29:37.006Z,9.77
2022-12-17T22:32:22.366Z,10.27
2022-12-17T22:36:00.068Z,9.90
2022-12-17T22:41:22.698Z,9.20
2022-12-17T22:44:03.756Z,9.98
2022-12-17T22:44:45.636Z,11.27
2022-12-17T22:46:17.190Z,9.90
2022-12-17T22:48:43.714Z,10.40
2022-12-17T22:51:12.721Z,10.00
2022-12-17T22:53:41.547Z,10.20
2022-12-17T22:56:19.433Z,10.82
2022-12-17T22:58:56.073Z,11.98
2022-12-17T23:01:23.294Z,13.10
2022-12-17T23:03:53.684Z,11.98
2022-12-17T23:06:20.721Z,9.23
2022-12-17T23:08:47.225Z,10.57
2022-12-17T23:11:19.860Z,10.30
2022-12-17T23:13:46.291Z,10.25
2022-12-17T23:16:13.894Z,11.55
2022-12-17T23:18:41.138Z,9.57
2022-12-17T23:21:21.111Z,10.32
2022-12-17T23:23:47.538Z,8.77
2022-12-17T23:26:23.673Z,10.07
2022-12-17T23:29:01.820Z,12.48
2022-12-17T23:31:32.088Z,10.18
2022-12-17T23:33:58.752Z,10.27
2022-12-17T23:36:26.261Z,10.98
2022-12-17T23:38:54.905Z,9.25
2022-12-17T23:41:25.044Z,10.82
2022-12-17T23:43:51.549Z,10.15
2022-12-17T23:46:19.025Z,9.48
2022-12-17T23:48:46.678Z,9.65
2022-12-17T23:51:14.805Z,9.48
2022-12-17T23:53:43.087Z,9.73
2022-12-17T23:56:12.655Z,9.65
2022-12-17T23:58:40.710Z,9.80
